Time;durP1;ratioP1;P1;durP2;ratioP2;P2;SDS_P1;SDS_P2;PMS_P1;PMS_P2;Temp;Humidity;BMP_temperature;BMP_pressure;BME280_temperature;BME280_humidity;BME280_pressure;Samples;Min_cycle;Max_cycle;Signal;HPM_P1;HPM_P2
2022/05/09 00:01:57;;;;;;;15.50;9.13;;;20.10;61.10;;;;;;5037397;28;20017;-65
2022/05/09 00:04:22;;;;;;;14.38;8.48;;;20.00;61.00;;;;;;5030369;28;20505;-66
2022/05/09 00:06:48;;;;;;;14.38;9.55;;;20.10;61.10;;;;;;5032868;28;20028;-65
2022/05/09 00:09:14;;;;;;;14.82;9.07;;;20.00;61.00;;;;;;5035257;28;20037;-65
2022/05/09 00:11:40;;;;;;;13.48;9.02;;;20.00;61.00;;;;;;5037812;28;20033;-65
2022/05/09 00:14:06;;;;;;;13.63;8.07;;;20.00;61.00;;;;;;5032226;28;20108;-65
2022/05/09 00:16:34;;;;;;;12.43;8.57;;;20.00;61.10;;;;;;5034538;28;20033;-65
2022/05/09 00:19:03;;;;;;;13.55;8.55;;;20.00;61.00;;;;;;5037015;28;20021;-65
2022/05/09 00:21:37;;;;;;;13.07;8.48;;;20.00;61.00;;;;;;5035688;28;20221;-65
2022/05/09 00:24:03;;;;;;;13.40;8.68;;;20.00;61.00;;;;;;5034512;28;20246;-65
2022/05/09 00:26:31;;;;;;;12.38;8.27;;;20.00;61.10;;;;;;5034121;28;20021;-65
2022/05/09 00:29:02;;;;;;;13.45;8.55;;;20.00;61.00;;;;;;5035536;28;20083;-65
2022/05/09 00:31:28;;;;;;;12.38;8.50;;;20.00;61.00;;;;;;5037182;28;20053;-65
2022/05/09 00:33:53;;;;;;;12.70;8.18;;;19.90;61.00;;;;;;5036726;28;20068;-66
2022/05/09 00:36:19;;;;;;;13.13;8.25;;;19.90;61.00;;;;;;5033157;28;20029;-65
2022/05/09 00:38:45;;;;;;;11.90;7.90;;;19.90;61.00;;;;;;5031579;28;20519;-65
2022/05/09 00:43:56;;;;;;;12.52;7.68;;;19.90;60.80;;;;;;5034687;28;20032;-65
2022/05/09 00:46:23;;;;;;;12.88;7.90;;;19.90;60.90;;;;;;5039508;28;20049;-65
2022/05/09 00:48:49;;;;;;;13.18;8.45;;;19.90;60.90;;;;;;5035511;28;20043;-65
2022/05/09 00:51:18;;;;;;;12.55;7.97;;;19.90;60.80;;;;;;5036522;28;20457;-65
2022/05/09 00:53:44;;;;;;;12.15;8.02;;;19.90;60.80;;;;;;5038210;28;20132;-65
2022/05/09 00:56:13;;;;;;;13.30;7.90;;;19.90;60.80;;;;;;5036448;28;20151;-65
2022/05/09 00:58:40;;;;;;;13.57;7.88;;;19.90;60.80;;;;;;5034029;28;20033;-65
2022/05/09 01:01:08;;;;;;;12.15;7.90;;;19.90;60.70;;;;;;5034808;28;20021;-65
2022/05/09 01:03:38;;;;;;;11.20;7.80;;;19.90;60.80;;;;;;5040109;28;20031;-65
2022/05/09 01:06:04;;;;;;;13.88;7.63;;;19.80;60.70;;;;;;5039008;28;20037;-65
2022/05/09 01:08:31;;;;;;;12.90;7.88;;;19.80;60.70;;;;;;5035420;28;20030;-65
2022/05/09 01:10:57;;;;;;;12.30;7.38;;;19.80;60.70;;;;;;5039901;28;20079;-65
2022/05/09 01:13:25;;;;;;;12.68;7.97;;;19.80;60.70;;;;;;5038345;28;20202;-65
2022/05/09 01:15:52;;;;;;;11.35;7.40;;;19.80;60.70;;;;;;5033781;28;20354;-65
2022/05/09 01:18:18;;;;;;;12.15;7.63;;;19.80;60.70;;;;;;5031086;28;20519;-65
2022/05/09 01:20:43;;;;;;;11.20;7.60;;;19.80;60.70;;;;;;5031745;28;20021;-65
2022/05/09 01:23:10;;;;;;;12.50;7.93;;;19.80;60.70;;;;;;5034536;28;20529;-65
2022/05/09 01:25:36;;;;;;;11.80;7.63;;;19.80;60.70;;;;;;5041219;28;20029;-65
2022/05/09 01:28:02;;;;;;;12.57;7.70;;;19.80;60.70;;;;;;5032493;28;20592;-65
2022/05/09 01:30:47;;;;;;;11.05;7.25;;;19.80;60.70;;;;;;5032052;28;20112;-65
2022/05/09 01:33:21;;;;;;;11.88;7.35;;;19.70;60.70;;;;;;5035544;28;20120;-65
2022/05/09 01:35:46;;;;;;;11.95;7.43;;;19.70;60.60;;;;;;5031234;28;20025;-65
2022/05/09 01:38:16;;;;;;;11.38;7.13;;;19.80;60.80;;;;;;5037238;28;20137;-65
2022/05/09 01:40:42;;;;;;;12.50;7.40;;;19.70;60.60;;;;;;5066163;28;20512;-65
2022/05/09 01:43:08;;;;;;;13.32;7.88;;;19.70;60.60;;;;;;5036488;28;20029;-65
2022/05/09 01:45:34;;;;;;;13.50;7.57;;;19.70;60.70;;;;;;5034387;28;20040;-65
2022/05/09 01:50:44;;;;;;;10.02;6.88;;;19.70;60.60;;;;;;5031120;28;20508;-65
2022/05/09 01:53:10;;;;;;;11.90;7.30;;;19.70;60.60;;;;;;5034505;28;20045;-65
2022/05/09 01:55:36;;;;;;;10.65;6.78;;;19.70;60.60;;;;;;5034519;28;20225;-65
2022/05/09 01:58:01;;;;;;;11.52;7.43;;;19.70;60.70;;;;;;5038884;28;20029;-65
2022/05/09 02:00:28;;;;;;;11.55;7.50;;;19.70;60.70;;;;;;5031525;28;20029;-65
2022/05/09 02:02:54;;;;;;;12.50;7.55;;;19.70;60.70;;;;;;5034520;28;20029;-65
2022/05/09 02:05:19;;;;;;;11.82;7.38;;;19.60;60.60;;;;;;5034487;28;20368;-65
2022/05/09 02:07:45;;;;;;;11.52;6.82;;;19.60;60.60;;;;;;5034723;28;20036;-65
2022/05/09 02:10:11;;;;;;;10.40;6.88;;;19.60;61.60;;;;;;5036628;28;20052;-65
2022/05/09 02:12:37;;;;;;;10.75;7.20;;;19.60;60.60;;;;;;5038402;28;20044;-65
2022/05/09 02:15:03;;;;;;;11.85;7.05;;;19.60;60.60;;;;;;5031605;28;20443;-65
2022/05/09 02:17:30;;;;;;;13.30;7.07;;;19.60;60.60;;;;;;5029896;28;20500;-65
2022/05/09 02:19:56;;;;;;;10.30;6.65;;;19.60;60.50;;;;;;5034372;28;20036;-65
2022/05/09 02:22:21;;;;;;;10.68;6.72;;;19.60;60.70;;;;;;5036124;28;20033;-65
2022/05/09 02:24:47;;;;;;;9.32;5.95;;;19.60;60.60;;;;;;5035801;28;20021;-65
2022/05/09 02:27:13;;;;;;;10.65;6.43;;;19.60;60.60;;;;;;5033084;28;20029;-65
2022/05/09 02:29:39;;;;;;;9.63;6.45;;;19.60;60.60;;;;;;5029812;28;20034;-65
2022/05/09 02:32:06;;;;;;;11.27;6.75;;;19.60;60.70;;;;;;5034051;28;20124;-65
2022/05/09 02:34:32;;;;;;;11.05;7.05;;;19.60;60.60;;;;;;5031986;28;20030;-65
2022/05/09 02:36:58;;;;;;;10.43;6.55;;;19.60;60.60;;;;;;5030825;28;20022;-65
2022/05/09 02:39:23;;;;;;;10.32;6.90;;;19.60;60.60;;;;;;5030119;28;20032;-65
2022/05/09 02:41:49;;;;;;;11.25;6.93;;;19.50;60.50;;;;;;5028160;28;20018;-65
2022/05/09 02:44:15;;;;;;;11.30;6.50;;;19.50;60.60;;;;;;5034975;28;20030;-65
2022/05/09 02:46:42;;;;;;;10.50;6.43;;;19.50;60.60;;;;;;5035443;28;20029;-65
2022/05/09 02:49:08;;;;;;;10.23;6.35;;;19.50;60.60;;;;;;5032866;28;20033;-65
2022/05/09 02:51:34;;;;;;;10.57;6.55;;;19.50;60.70;;;;;;5033898;28;20023;-65
2022/05/09 02:54:00;;;;;;;9.73;6.28;;;19.50;60.70;;;;;;5035308;28;20397;-65
2022/05/09 02:56:25;;;;;;;11.82;6.75;;;19.50;60.60;;;;;;5028767;28;20075;-65
2022/05/09 02:58:51;;;;;;;10.40;6.10;;;19.50;60.60;;;;;;5034014;28;20025;-65
2022/05/09 03:01:17;;;;;;;10.73;6.43;;;19.50;60.70;;;;;;5034073;28;20072;-65
2022/05/09 03:06:26;;;;;;;10.20;6.28;;;19.40;60.50;;;;;;5031344;28;20039;-65
2022/05/09 03:08:52;;;;;;;10.45;6.90;;;19.40;60.60;;;;;;5030706;28;20393;-65
2022/05/09 03:11:18;;;;;;;10.07;6.22;;;19.50;60.60;;;;;;5032311;28;20512;-65
2022/05/09 03:13:43;;;;;;;9.55;6.13;;;19.50;60.60;;;;;;5032875;28;20045;-65
2022/05/09 03:16:09;;;;;;;9.43;5.90;;;19.50;60.70;;;;;;5029157;28;20030;-65
2022/05/09 03:18:36;;;;;;;10.43;6.07;;;19.40;60.60;;;;;;5035036;28;20033;-65
2022/05/09 03:21:02;;;;;;;9.48;6.07;;;19.40;60.60;;;;;;5035604;28;20172;-65
2022/05/09 03:23:27;;;;;;;10.15;6.20;;;19.50;60.60;;;;;;5038703;28;20820;-65
2022/05/09 03:25:53;;;;;;;9.85;6.30;;;19.40;60.70;;;;;;5033838;28;20033;-65
2022/05/09 03:28:21;;;;;;;10.02;6.53;;;19.40;60.60;;;;;;5033020;28;20406;-65
2022/05/09 03:30:47;;;;;;;9.35;5.93;;;19.40;60.60;;;;;;5032085;28;20379;-64
2022/05/09 03:33:14;;;;;;;10.30;6.18;;;19.40;60.60;;;;;;5030256;28;20417;-65
2022/05/09 03:35:39;;;;;;;9.68;5.63;;;19.40;60.70;;;;;;5030270;28;20552;-65
2022/05/09 03:38:05;;;;;;;9.55;6.03;;;19.40;60.60;;;;;;5029132;28;20034;-65
2022/05/09 03:40:31;;;;;;;9.32;5.82;;;19.40;60.60;;;;;;5035145;28;20029;-65
2022/05/09 03:42:59;;;;;;;9.07;5.90;;;19.40;60.60;;;;;;5032318;28;20436;-65
2022/05/09 03:45:25;;;;;;;9.52;5.80;;;19.40;60.70;;;;;;5035734;28;20061;-64
2022/05/09 03:47:51;;;;;;;9.00;5.90;;;19.30;60.50;;;;;;5037987;28;20021;-65
2022/05/09 03:50:16;;;;;;;9.60;5.88;;;19.30;60.50;;;;;;5031238;28;20029;-65
2022/05/09 03:52:42;;;;;;;9.30;5.78;;;19.30;60.60;;;;;;5035258;28;20034;-65
2022/05/09 03:55:08;;;;;;;9.20;6.13;;;19.30;60.60;;;;;;5035317;28;20406;-65
2022/05/09 03:57:34;;;;;;;9.50;6.00;;;19.30;61.60;;;;;;5035994;28;20034;-65
2022/05/09 04:00:06;;;;;;;10.40;5.88;;;19.30;60.60;;;;;;5037997;28;20021;-65
2022/05/09 04:02:32;;;;;;;8.93;5.55;;;19.30;60.50;;;;;;5033970;28;20087;-65
2022/05/09 04:04:58;;;;;;;9.40;5.78;;;19.30;60.60;;;;;;5034987;28;20033;-65
2022/05/09 04:07:23;;;;;;;9.45;5.68;;;19.30;60.60;;;;;;5039475;28;20072;-65
2022/05/09 04:09:49;;;;;;;10.23;5.82;;;19.30;60.50;;;;;;5035101;28;20176;-65
2022/05/09 04:12:14;;;;;;;9.65;5.78;;;19.30;60.60;;;;;;5034231;28;20132;-65
2022/05/09 04:17:25;;;;;;;8.98;5.45;;;19.30;61.00;;;;;;5037995;28;20036;-64
2022/05/09 04:19:51;;;;;;;9.30;5.78;;;19.30;61.10;;;;;;5037610;28;20030;-65
2022/05/09 04:22:17;;;;;;;9.40;5.57;;;19.30;61.00;;;;;;5034386;28;20038;-65
2022/05/09 04:24:43;;;;;;;8.32;5.35;;;19.30;61.00;;;;;;5035179;28;20060;-65
2022/05/09 04:27:09;;;;;;;8.95;5.43;;;19.30;61.10;;;;;;5038423;28;20041;-65
2022/05/09 04:29:35;;;;;;;9.35;5.25;;;19.30;61.00;;;;;;5033530;28;20040;-65
2022/05/09 04:32:01;;;;;;;8.25;4.90;;;19.30;61.10;;;;;;5030302;28;20061;-65
2022/05/09 04:34:27;;;;;;;10.15;5.80;;;19.30;61.10;;;;;;5033625;28;20524;-65
2022/05/09 04:36:53;;;;;;;10.20;5.40;;;19.30;61.00;;;;;;5034349;28;20037;-65
2022/05/09 04:39:20;;;;;;;8.82;5.22;;;19.30;61.00;;;;;;5035899;28;20021;-66
2022/05/09 04:41:46;;;;;;;9.32;5.13;;;19.30;61.00;;;;;;5033607;28;20063;-65
2022/05/09 04:44:12;;;;;;;9.65;5.47;;;19.30;61.00;;;;;;5036117;28;20057;-66
2022/05/09 04:46:37;;;;;;;9.00;5.50;;;19.30;61.20;;;;;;5035023;28;20041;-65
2022/05/09 04:49:03;;;;;;;9.85;5.63;;;19.30;61.20;;;;;;5033485;28;20036;-65
2022/05/09 04:51:29;;;;;;;12.65;5.03;;;19.30;61.20;;;;;;5033529;28;20029;-65
2022/05/09 04:53:54;;;;;;;8.95;5.28;;;19.30;61.30;;;;;;5036510;28;20390;-65
2022/05/09 04:56:20;;;;;;;8.68;5.50;;;19.30;61.30;;;;;;5038738;28;20409;-65
2022/05/09 04:58:46;;;;;;;8.18;4.80;;;19.20;61.20;;;;;;5035123;28;20658;-65
2022/05/09 05:01:11;;;;;;;9.25;5.35;;;19.20;61.30;;;;;;5062933;28;20029;-66
2022/05/09 05:03:37;;;;;;;9.20;5.20;;;19.20;61.20;;;;;;5038024;28;20603;-65
2022/05/09 05:06:04;;;;;;;9.18;5.38;;;19.30;61.40;;;;;;5024778;28;20621;-66
2022/05/09 05:08:35;;;;;;;8.55;5.38;;;19.30;61.70;;;;;;5038525;28;20025;-66
2022/05/09 05:11:04;;;;;;;9.38;5.47;;;19.20;61.40;;;;;;5040038;28;20127;-65
2022/05/09 05:13:32;;;;;;;10.93;4.82;;;19.30;61.80;;;;;;5033207;28;20064;-65
2022/05/09 05:15:58;;;;;;;10.13;5.68;;;19.30;61.80;;;;;;5036246;28;20024;-66
2022/05/09 05:18:26;;;;;;;9.10;5.45;;;19.30;62.20;;;;;;5037112;28;20484;-65
2022/05/09 05:20:52;;;;;;;15.00;6.45;;;19.30;62.40;;;;;;5035898;28;20033;-65
2022/05/09 05:23:17;;;;;;;15.40;6.38;;;19.30;64.50;;;;;;5031568;28;20032;-64
2022/05/09 05:25:45;;;;;;;12.32;6.65;;;19.30;63.90;;;;;;5031572;28;20372;-64
2022/05/09 05:28:12;;;;;;;14.05;5.97;;;19.30;64.60;;;;;;5041699;28;20036;-64
2022/05/09 05:30:38;;;;;;;13.02;6.05;;;19.30;64.20;;;;;;5036421;28;20410;-64
2022/05/09 05:33:04;;;;;;;14.15;6.18;;;19.30;64.40;;;;;;5039992;28;20049;-65
2022/05/09 05:35:30;;;;;;;11.75;5.97;;;19.30;64.50;;;;;;5030744;28;20090;-64
2022/05/09 05:37:55;;;;;;;15.05;6.50;;;19.30;64.60;;;;;;5035532;28;20494;-65
2022/05/09 05:40:21;;;;;;;12.43;6.50;;;19.30;64.60;;;;;;5031533;28;20060;-65
2022/05/09 05:42:50;;;;;;;15.43;6.57;;;19.30;64.90;;;;;;5036255;28;20498;-65
2022/05/09 05:45:20;;;;;;;15.05;6.18;;;19.30;64.70;;;;;;5030151;28;20280;-65
2022/05/09 05:47:46;;;;;;;14.43;6.38;;;19.30;64.50;;;;;;5033589;28;20389;-65
2022/05/09 05:50:13;;;;;;;13.50;6.40;;;19.30;64.50;;;;;;5035433;28;20413;-65
2022/05/09 05:52:38;;;;;;;13.65;5.95;;;19.30;64.50;;;;;;5035025;28;20044;-65
2022/05/09 05:55:04;;;;;;;10.73;6.00;;;19.30;64.60;;;;;;5036396;28;20468;-65
2022/05/09 05:57:31;;;;;;;10.50;5.93;;;19.30;64.40;;;;;;5038637;28;20086;-65
2022/05/09 06:00:07;;;;;;;12.85;6.25;;;19.30;64.60;;;;;;5031959;28;20032;-65
2022/05/09 06:02:32;;;;;;;11.48;6.40;;;19.30;64.40;;;;;;5032629;28;20409;-65
2022/05/09 06:04:58;;;;;;;14.27;6.30;;;19.30;64.50;;;;;;5035615;28;20028;-65
2022/05/09 06:07:24;;;;;;;13.40;6.28;;;19.30;64.40;;;;;;5034882;28;20122;-65
2022/05/09 06:09:50;;;;;;;11.77;6.15;;;19.30;64.40;;;;;;5040007;28;20094;-65
2022/05/09 06:12:17;;;;;;;13.88;6.10;;;19.30;64.30;;;;;;5035617;28;20041;-65
2022/05/09 06:14:43;;;;;;;11.02;6.45;;;19.30;64.20;;;;;;5036760;28;20029;-66
2022/05/09 06:17:09;;;;;;;10.32;6.15;;;19.30;64.40;;;;;;5030840;28;20402;-65
2022/05/09 06:19:35;;;;;;;11.20;6.35;;;19.30;64.30;;;;;;5030474;28;20030;-65
2022/05/09 06:22:00;;;;;;;11.40;5.80;;;19.30;64.20;;;;;;5034038;28;20059;-65
2022/05/09 06:24:26;;;;;;;11.55;5.88;;;19.30;64.20;;;;;;5031332;28;20029;-65
2022/05/09 06:26:52;;;;;;;10.68;6.28;;;19.30;64.20;;;;;;5033821;28;20032;-65
2022/05/09 06:29:18;;;;;;;10.60;6.15;;;19.30;64.20;;;;;;5034006;28;20086;-65
2022/05/09 06:31:44;;;;;;;13.45;6.57;;;19.30;64.20;;;;;;5033558;28;20421;-65
2022/05/09 06:34:12;;;;;;;12.95;6.68;;;19.30;64.10;;;;;;5034687;28;20583;-65
2022/05/09 06:36:38;;;;;;;12.57;6.90;;;19.30;64.20;;;;;;5030691;28;20029;-65
2022/05/09 06:39:04;;;;;;;11.02;6.65;;;19.30;64.10;;;;;;5031731;28;20029;-65
2022/05/09 06:41:30;;;;;;;13.43;7.00;;;19.30;64.00;;;;;;5033042;28;20026;-65
2022/05/09 06:43:56;;;;;;;12.07;6.38;;;19.30;64.10;;;;;;5030922;28;20037;-65
2022/05/09 06:46:21;;;;;;;17.00;7.43;;;19.30;64.00;;;;;;5033913;28;20069;-66
2022/05/09 06:48:47;;;;;;;12.80;6.97;;;19.30;64.10;;;;;;5038131;28;20611;-65
2022/05/09 06:51:13;;;;;;;11.65;6.85;;;19.30;64.10;;;;;;5031867;28;20080;-65
2022/05/09 06:53:38;;;;;;;12.60;6.82;;;19.30;63.90;;;;;;5034972;28;20045;-65
2022/05/09 06:56:04;;;;;;;11.90;6.75;;;19.30;63.90;;;;;;5032627;28;20033;-65
2022/05/09 06:58:31;;;;;;;12.27;6.75;;;19.30;64.10;;;;;;5034665;28;20036;-66
2022/05/09 07:00:57;;;;;;;14.10;6.50;;;19.30;63.90;;;;;;5037510;28;20028;-65
2022/05/09 07:03:23;;;;;;;12.95;6.82;;;19.30;63.90;;;;;;5033396;28;20040;-65
2022/05/09 07:05:49;;;;;;;13.13;6.38;;;19.30;63.90;;;;;;5036958;28;20045;-66
2022/05/09 07:08:15;;;;;;;15.00;7.15;;;19.40;64.00;;;;;;5036106;28;20131;-66
2022/05/09 07:10:41;;;;;;;12.10;7.25;;;19.40;64.10;;;;;;5032492;28;20056;-66
2022/05/09 07:13:07;;;;;;;12.52;6.85;;;19.40;64.00;;;;;;5031986;28;20040;-65
2022/05/09 07:15:33;;;;;;;12.55;7.47;;;19.40;64.10;;;;;;5036876;28;20029;-65
2022/05/09 07:17:58;;;;;;;12.93;7.20;;;19.40;64.20;;;;;;5030725;28;20033;-66
2022/05/09 07:20:25;;;;;;;12.85;7.30;;;19.40;64.10;;;;;;5033791;28;20044;-65
2022/05/09 07:22:55;;;;;;;14.85;7.38;;;19.40;64.10;;;;;;5033520;28;20034;-65
2022/05/09 07:25:22;;;;;;;11.05;7.28;;;19.40;64.10;;;;;;5035716;28;20064;-66
2022/05/09 07:27:47;;;;;;;15.57;7.15;;;19.40;64.10;;;;;;5039738;28;20025;-65
2022/05/09 07:30:16;;;;;;;11.70;7.00;;;19.40;64.20;;;;;;5035272;28;20440;-65
2022/05/09 07:32:41;;;;;;;12.57;7.22;;;19.40;64.10;;;;;;5035489;28;20498;-65
2022/05/09 07:35:08;;;;;;;11.48;6.75;;;19.40;64.10;;;;;;5037051;28;20040;-66
2022/05/09 07:37:34;;;;;;;13.00;7.13;;;19.40;64.10;;;;;;5035840;28;20022;-65
2022/05/09 07:40:00;;;;;;;14.02;7.70;;;19.40;64.10;;;;;;5034767;28;20032;-65
2022/05/09 07:42:27;;;;;;;13.35;7.28;;;19.40;64.10;;;;;;5034000;28;20710;-66
2022/05/09 07:44:54;;;;;;;12.32;7.35;;;19.40;64.10;;;;;;5041755;28;20413;-65
2022/05/09 07:47:19;;;;;;;13.27;7.32;;;19.40;64.00;;;;;;5034555;28;20529;-65
2022/05/09 07:49:45;;;;;;;12.13;7.03;;;19.40;64.00;;;;;;5039828;28;20034;-65
2022/05/09 07:52:11;;;;;;;12.98;7.70;;;19.40;64.00;;;;;;5034629;28;20064;-65
2022/05/09 07:54:37;;;;;;;12.65;7.35;;;19.40;63.90;;;;;;5034311;28;20087;-65
2022/05/09 07:57:03;;;;;;;11.93;6.63;;;19.50;63.90;;;;;;5036278;28;20026;-65
2022/05/09 07:59:29;;;;;;;11.55;7.40;;;19.50;63.80;;;;;;5034535;28;20032;-65
2022/05/09 08:01:55;;;;;;;12.80;7.18;;;19.50;63.90;;;;;;5035802;28;20095;-65
2022/05/09 08:04:21;;;;;;;11.68;7.07;;;19.50;63.80;;;;;;5032703;28;20029;-65
2022/05/09 08:06:47;;;;;;;12.95;7.40;;;19.50;63.70;;;;;;5036429;28;20032;-65
2022/05/09 08:09:13;;;;;;;11.15;6.88;;;19.50;63.60;;;;;;5032914;28;20033;-65
2022/05/09 08:11:39;;;;;;;11.90;7.20;;;19.50;63.60;;;;;;5033453;28;20083;-65
2022/05/09 08:14:06;;;;;;;13.10;7.63;;;19.60;63.60;;;;;;5037260;28;20053;-65
2022/05/09 08:16:33;;;;;;;10.80;6.65;;;19.50;63.50;;;;;;5035181;28;20029;-65
2022/05/09 08:18:59;;;;;;;10.25;6.80;;;19.60;63.50;;;;;;5040129;28;20516;-65
2022/05/09 08:21:25;;;;;;;10.50;6.53;;;19.60;63.40;;;;;;5032597;28;20029;-66
2022/05/09 08:23:51;;;;;;;10.95;6.80;;;19.60;63.40;;;;;;5036444;28;20518;-65
2022/05/09 08:26:19;;;;;;;10.50;6.60;;;19.60;63.40;;;;;;5031296;28;20033;-65
2022/05/09 08:28:45;;;;;;;13.32;6.90;;;19.60;63.10;;;;;;5035548;28;20524;-65
2022/05/09 08:31:11;;;;;;;10.48;6.45;;;19.60;63.10;;;;;;5038561;28;20021;-65
2022/05/09 08:33:37;;;;;;;12.85;6.75;;;19.60;63.10;;;;;;5034343;28;20116;-65
2022/05/09 08:36:07;;;;;;;11.25;6.55;;;19.60;63.10;;;;;;5034280;28;20669;-65
2022/05/09 08:38:33;;;;;;;11.25;6.72;;;19.60;62.90;;;;;;5037911;28;20029;-66
2022/05/09 08:41:07;;;;;;;11.68;6.75;;;19.60;62.90;;;;;;5040393;28;20390;-66
2022/05/09 08:43:51;;;;;;;9.97;6.00;;;19.70;62.90;;;;;;5034708;28;20034;-65
2022/05/09 08:46:20;;;;;;;10.13;6.20;;;19.70;62.80;;;;;;5039110;28;20296;-65
2022/05/09 08:48:55;;;;;;;10.38;6.15;;;19.70;62.70;;;;;;5033373;28;20051;-65
2022/05/09 08:51:27;;;;;;;;;;;19.70;62.70;;;;;;5034855;28;20482;-65
2022/05/09 08:53:58;;;;;;;10.27;6.18;;;19.70;62.60;;;;;;5034930;28;19975;-65
2022/05/09 08:56:24;;;;;;;11.45;6.57;;;19.70;62.60;;;;;;5043925;28;20041;-65
2022/05/09 08:58:59;;;;;;;10.82;5.90;;;19.80;62.60;;;;;;5034589;28;20048;-65
2022/05/09 09:02:06;;;;;;;11.80;6.63;;;19.80;62.50;;;;;;5039569;28;20520;-66
2022/05/09 09:04:33;;;;;;;10.05;5.97;;;19.80;62.60;;;;;;5020495;28;20528;-66
2022/05/09 09:07:17;;;;;;;9.73;6.03;;;19.80;62.50;;;;;;5021214;28;20124;-65
2022/05/09 09:10:10;;;;;;;10.15;6.40;;;19.80;62.50;;;;;;5007209;28;20040;-65
2022/05/09 09:12:57;;;;;;;9.95;6.13;;;19.80;62.40;;;;;;5012159;28;20048;-65
2022/05/09 09:15:35;;;;;;;9.65;5.68;;;19.80;62.40;;;;;;5002191;28;20532;-66
2022/05/09 09:18:05;;;;;;;10.07;6.43;;;19.90;62.40;;;;;;5025844;28;20448;-65
2022/05/09 09:21:22;;;;;;;9.38;5.88;;;19.80;62.30;;;;;;5003353;28;20084;-65
2022/05/09 09:24:06;;;;;;;10.85;6.07;;;19.80;62.50;;;;;;4985455;28;20396;-65
2022/05/09 09:26:49;;;;;;;9.77;6.38;;;19.90;62.30;;;;;;4984159;28;20551;-65
2022/05/09 09:29:20;;;;;;;9.55;5.85;;;19.90;62.30;;;;;;4986768;28;20054;-65
2022/05/09 09:31:55;;;;;;;9.50;5.78;;;19.90;62.30;;;;;;4964592;28;20034;-65
2022/05/09 09:34:21;;;;;;;;;;;19.90;62.20;;;;;;4966502;28;20070;-65
2022/05/09 09:36:53;;;;;;;10.85;5.75;;;19.90;62.10;;;;;;4983615;28;20012;-65
2022/05/09 09:39:19;;;;;;;10.02;5.72;;;19.90;62.10;;;;;;4956021;28;20125;-65
2022/05/09 09:41:45;;;;;;;9.77;5.70;;;20.00;62.20;;;;;;4995380;28;20525;-65
2022/05/09 09:44:21;;;;;;;9.85;6.18;;;20.00;62.20;;;;;;4985727;28;20041;-65
2022/05/09 09:47:02;;;;;;;10.88;5.88;;;20.00;62.20;;;;;;5002757;28;20359;-65
2022/05/09 09:49:27;;;;;;;9.52;6.30;;;20.00;62.10;;;;;;4996696;28;20033;-65
2022/05/09 09:51:53;;;;;;;10.07;5.75;;;20.00;62.00;;;;;;4999647;28;20033;-65
2022/05/09 09:54:21;;;;;;;9.85;5.82;;;20.00;62.00;;;;;;5018197;28;20045;-65
2022/05/09 09:56:47;;;;;;;9.52;5.75;;;20.00;62.00;;;;;;5036351;28;20092;-65
2022/05/09 09:59:21;;;;;;;9.25;5.90;;;20.10;62.00;;;;;;5034142;28;20425;-65
2022/05/09 10:02:02;;;;;;;10.35;6.10;;;20.10;61.90;;;;;;5032746;28;20025;-65
2022/05/09 10:04:28;;;;;;;10.38;6.53;;;20.10;62.00;;;;;;5034140;28;20441;-65
2022/05/09 10:07:03;;;;;;;9.98;5.60;;;20.10;61.80;;;;;;5035251;28;20509;-65
2022/05/09 10:09:39;;;;;;;8.98;5.57;;;20.20;61.90;;;;;;5034065;28;20024;-65
2022/05/09 10:12:27;;;;;;;9.13;5.63;;;20.20;61.90;;;;;;5036504;28;20037;-65
2022/05/09 10:14:53;;;;;;;10.18;6.20;;;20.20;61.80;;;;;;5044067;28;20029;-65
2022/05/09 10:17:25;;;;;;;10.15;6.28;;;20.20;61.80;;;;;;5036115;28;20033;-65
2022/05/09 10:19:51;;;;;;;11.15;6.22;;;20.20;61.70;;;;;;5040982;28;20086;-65
2022/05/09 10:25:22;;;;;;;10.10;5.93;;;20.30;61.60;;;;;;5029664;28;20040;-65
2022/05/09 10:28:07;;;;;;;11.38;6.10;;;20.30;61.60;;;;;;5030377;28;20033;-65
2022/05/09 10:30:33;;;;;;;9.75;5.93;;;20.30;61.60;;;;;;5033832;28;20493;-65
2022/05/09 10:33:11;;;;;;;9.63;5.72;;;20.30;61.60;;;;;;5032991;28;20033;-65
2022/05/09 10:35:42;;;;;;;9.18;6.10;;;20.40;61.60;;;;;;5030682;28;20064;-65
2022/05/09 10:38:13;;;;;;;9.25;5.85;;;20.40;61.60;;;;;;5050772;28;20025;-65
2022/05/09 10:40:47;;;;;;;9.80;5.55;;;20.40;61.60;;;;;;5033054;28;20394;-65
2022/05/09 10:43:23;;;;;;;10.88;6.10;;;20.40;61.60;;;;;;5031799;28;20029;-65
2022/05/09 10:45:50;;;;;;;9.98;6.10;;;20.40;61.60;;;;;;5031553;28;20048;-65
2022/05/09 10:48:21;;;;;;;10.55;6.13;;;20.40;62.70;;;;;;5034301;28;20032;-65
2022/05/09 10:51:08;;;;;;;9.00;5.60;;;20.40;61.60;;;;;;5037137;28;20543;-65
2022/05/09 10:53:46;;;;;;;9.38;5.70;;;20.50;61.70;;;;;;5031784;28;20057;-65
2022/05/09 10:56:17;;;;;;;10.27;5.47;;;20.50;61.70;;;;;;5033543;28;20032;-65
2022/05/09 10:59:04;;;;;;;9.23;5.65;;;20.50;61.70;;;;;;5031834;28;20034;-65
2022/05/09 11:01:32;;;;;;;10.15;5.88;;;20.50;61.60;;;;;;5036889;28;20112;-65
2022/05/09 11:03:58;;;;;;;9.82;5.78;;;20.60;61.50;;;;;;5031972;28;20044;-65
2022/05/09 11:06:42;;;;;;;9.27;5.90;;;20.60;61.50;;;;;;5033655;28;20608;-65
2022/05/09 11:09:24;;;;;;;9.63;5.90;;;20.60;61.40;;;;;;5029793;28;20021;-65
2022/05/09 11:12:14;;;;;;;9.82;5.97;;;20.60;61.40;;;;;;5038008;28;20485;-65
2022/05/09 11:15:11;;;;;;;8.65;5.25;;;20.60;61.30;;;;;;5030303;28;20329;-66
2022/05/09 11:17:58;;;;;;;9.80;6.18;;;20.60;61.30;;;;;;5027612;28;20022;-65
2022/05/09 11:20:43;;;;;;;9.43;5.47;;;20.70;61.30;;;;;;5031286;28;20144;-65
2022/05/09 11:23:43;;;;;;;9.73;5.57;;;20.70;61.20;;;;;;5033227;28;20170;-65
2022/05/09 11:26:24;;;;;;;8.93;5.15;;;20.70;61.20;;;;;;5031091;28;20037;-65
2022/05/09 11:29:20;;;;;;;8.80;5.30;;;20.80;61.10;;;;;;5035996;28;20029;-65
2022/05/09 11:32:10;;;;;;;9.43;5.85;;;20.80;61.10;;;;;;5031523;28;20061;-65
2022/05/09 11:34:48;;;;;;;9.55;5.57;;;20.80;61.00;;;;;;5036233;28;20489;-65
2022/05/09 11:37:32;;;;;;;9.35;6.10;;;20.90;61.10;;;;;;5032781;28;20078;-65
2022/05/09 11:40:13;;;;;;;9.65;6.03;;;20.80;60.90;;;;;;5031569;28;20451;-65
2022/05/09 11:43:29;;;;;;;10.20;5.72;;;20.90;61.00;;;;;;5035873;28;20020;-65
2022/05/09 11:45:57;;;;;;;9.00;6.07;;;20.90;61.00;;;;;;5032983;28;20140;-66
2022/05/09 11:49:04;;;;;;;10.68;6.05;;;20.90;61.00;;;;;;5030659;28;20202;-65
2022/05/09 11:51:49;;;;;;;10.18;5.72;;;21.00;61.00;;;;;;5019511;28;20336;-65
2022/05/09 11:54:34;;;;;;;9.32;5.90;;;20.90;61.00;;;;;;5031705;28;20494;-65
2022/05/09 11:57:04;;;;;;;10.13;6.05;;;21.00;61.00;;;;;;4996084;28;20029;-65
2022/05/09 11:59:32;;;;;;;9.90;5.72;;;21.00;60.90;;;;;;5035709;28;20075;-65
2022/05/09 12:02:07;;;;;;;9.10;5.88;;;21.00;60.90;;;;;;5018367;28;20044;-66
2022/05/09 12:04:36;;;;;;;9.15;5.70;;;21.00;60.90;;;;;;5024501;28;20130;-65
2022/05/09 12:07:22;;;;;;;9.75;6.07;;;21.00;60.90;;;;;;5025046;28;20061;-66
2022/05/09 12:10:02;;;;;;;8.95;5.80;;;21.00;60.80;;;;;;4971441;28;20122;-65
2022/05/09 12:12:37;;;;;;;11.15;6.18;;;21.00;60.80;;;;;;4971290;28;20081;-65
2022/05/09 12:15:09;;;;;;;;;;;21.10;60.80;;;;;;4982290;28;20483;-66
2022/05/09 12:17:38;;;;;;;9.55;5.65;;;21.10;60.70;;;;;;4954892;28;19977;-66
2022/05/09 12:20:06;;;;;;;9.63;6.30;;;21.20;60.70;;;;;;4984168;28;20464;-66
2022/05/09 12:22:35;;;;;;;9.00;5.40;;;21.20;60.70;;;;;;4978393;28;20419;-66
2022/05/09 12:25:02;;;;;;;10.45;6.22;;;21.20;60.70;;;;;;4973144;28;20083;-66
2022/05/09 12:27:40;;;;;;;9.40;5.57;;;21.20;60.50;;;;;;4992718;28;20037;-65
2022/05/09 12:30:14;;;;;;;9.25;5.47;;;21.20;60.50;;;;;;5016932;28;20037;-65
2022/05/09 12:32:40;;;;;;;9.33;5.97;;;21.30;60.40;;;;;;5009013;28;20042;-66
2022/05/09 12:35:08;;;;;;;8.95;5.60;;;21.30;60.40;;;;;;4979025;28;20049;-66
2022/05/09 12:37:42;;;;;;;8.88;5.63;;;21.40;60.40;;;;;;5009859;28;20026;-65
2022/05/09 12:40:19;;;;;;;10.13;6.03;;;21.40;60.30;;;;;;5014991;28;20033;-65
2022/05/09 12:42:49;;;;;;;9.65;5.78;;;21.40;60.20;;;;;;5014450;28;20137;-66
2022/05/09 12:45:14;;;;;;;9.25;5.72;;;21.40;60.10;;;;;;5013547;28;20052;-66
2022/05/09 12:47:40;;;;;;;8.77;5.70;;;21.50;60.20;;;;;;5029081;28;20515;-66
2022/05/09 12:50:15;;;;;;;9.77;6.07;;;21.50;60.00;;;;;;5033064;28;20029;-63
2022/05/09 12:52:43;;;;;;;9.65;5.90;;;21.50;60.10;;;;;;5034330;28;20508;-66
2022/05/09 12:57:54;;;;;;;8.68;5.95;;;21.60;59.90;;;;;;5034979;28;20036;-66
2022/05/09 13:00:22;;;;;;;9.15;5.78;;;21.60;59.90;;;;;;5037087;28;20041;-66
2022/05/09 13:02:48;;;;;;;9.13;5.93;;;21.60;59.80;;;;;;5034573;28;20033;-66
2022/05/09 13:05:14;;;;;;;11.02;5.75;;;21.70;59.80;;;;;;5037284;28;20478;-66
2022/05/09 13:07:53;;;;;;;9.52;5.80;;;21.70;59.80;;;;;;5037152;28;20026;-66
2022/05/09 13:10:19;;;;;;;9.57;5.97;;;21.70;59.60;;;;;;5038589;28;20078;-66